sensor_id;sensor_type;location;lat;lon;timestamp;temperature;humidity
3701;DHT22;1866;48.374;10.766;2023-04-24T00:01:22;10.10;1.00
3701;DHT22;1866;48.374;10.766;2023-04-24T00:03:49;10.10;1.00
3701;DHT22;1866;48.374;10.766;2023-04-24T00:06:16;10.00;1.00
3701;DHT22;1866;48.374;10.766;2023-04-24T00:08:43;9.90;1.00
3701;DHT22;1866;48.374;10.766;2023-04-24T00:11:10;10.00;1.00
3701;DHT22;1866;48.374;10.766;2023-04-24T00:13:37;9.90;1.00
3701;DHT22;1866;48.374;10.766;2023-04-24T00:16:05;9.90;1.00
3701;DHT22;1866;48.374;10.766;2023-04-24T00:18:32;9.90;1.00
3701;DHT22;1866;48.374;10.766;2023-04-24T00:20:59;9.90;1.00
3701;DHT22;1866;48.374;10.766;2023-04-24T00:23:26;9.90;1.00
3701;DHT22;1866;48.374;10.766;2023-04-24T00:25:53;9.80;1.00
3701;DHT22;1866;48.374;10.766;2023-04-24T00:28:20;9.80;1.00
3701;DHT22;1866;48.374;10.766;2023-04-24T00:30:46;9.90;1.00
3701;DHT22;1866;48.374;10.766;2023-04-24T00:33:15;9.80;1.00
3701;DHT22;1866;48.374;10.766;2023-04-24T00:35:42;9.80;1.00
3701;DHT22;1866;48.374;10.766;2023-04-24T00:38:09;9.70;1.00
3701;DHT22;1866;48.374;10.766;2023-04-24T00:40:36;9.80;1.00
3701;DHT22;1866;48.374;10.766;2023-04-24T00:43:03;9.80;1.00
3701;DHT22;1866;48.374;10.766;2023-04-24T00:45:29;9.70;1.00
3701;DHT22;1866;48.374;10.766;2023-04-24T00:47:57;9.70;1.00
3701;DHT22;1866;48.374;10.766;2023-04-24T00:50:25;9.70;1.00
3701;DHT22;1866;48.374;10.766;2023-04-24T00:52:53;9.80;1.00
3701;DHT22;1866;48.374;10.766;2023-04-24T00:55:20;9.70;1.00
3701;DHT22;1866;48.374;10.766;2023-04-24T00:57:47;9.70;1.00
3701;DHT22;1866;48.374;10.766;2023-04-24T01:00:16;9.60;1.00
3701;DHT22;1866;48.374;10.766;2023-04-24T01:02:44;9.70;1.00
3701;DHT22;1866;48.374;10.766;2023-04-24T01:05:12;9.70;1.00
3701;DHT22;1866;48.374;10.766;2023-04-24T01:07:44;9.60;1.00
3701;DHT22;1866;48.374;10.766;2023-04-24T01:10:14;9.70;1.00
3701;DHT22;1866;48.374;10.766;2023-04-24T01:12:41;9.50;1.00
3701;DHT22;1866;48.374;10.766;2023-04-24T01:15:09;9.60;1.00
3701;DHT22;1866;48.374;10.766;2023-04-24T01:17:36;9.50;1.00
3701;DHT22;1866;48.374;10.766;2023-04-24T01:20:04;9.40;1.00
3701;DHT22;1866;48.374;10.766;2023-04-24T01:22:33;9.50;1.00
3701;DHT22;1866;48.374;10.766;2023-04-24T01:25:01;9.60;1.00
3701;DHT22;1866;48.374;10.766;2023-04-24T01:27:28;9.50;1.00
3701;DHT22;1866;48.374;10.766;2023-04-24T01:29:55;9.60;1.00
3701;DHT22;1866;48.374;10.766;2023-04-24T01:32:21;9.40;1.00
3701;DHT22;1866;48.374;10.766;2023-04-24T01:34:48;9.50;1.00
3701;DHT22;1866;48.374;10.766;2023-04-24T01:37:15;9.50;1.00
3701;DHT22;1866;48.374;10.766;2023-04-24T01:39:44;9.40;1.00
3701;DHT22;1866;48.374;10.766;2023-04-24T01:42:12;9.50;1.00
3701;DHT22;1866;48.374;10.766;2023-04-24T01:44:40;9.60;1.00
3701;DHT22;1866;48.374;10.766;2023-04-24T01:47:07;9.50;1.00
3701;DHT22;1866;48.374;10.766;2023-04-24T01:49:34;9.50;1.00
3701;DHT22;1866;48.374;10.766;2023-04-24T01:52:01;9.60;1.00
3701;DHT22;1866;48.374;10.766;2023-04-24T01:54:28;9.50;1.00
3701;DHT22;1866;48.374;10.766;2023-04-24T01:56:56;9.40;1.00
3701;DHT22;1866;48.374;10.766;2023-04-24T01:59:23;9.50;1.00
3701;DHT22;1866;48.374;10.766;2023-04-24T02:01:51;9.40;1.00
3701;DHT22;1866;48.374;10.766;2023-04-24T02:04:18;9.30;1.00
3701;DHT22;1866;48.374;10.766;2023-04-24T02:06:45;9.50;1.00
3701;DHT22;1866;48.374;10.766;2023-04-24T02:09:12;9.50;1.00
3701;DHT22;1866;48.374;10.766;2023-04-24T02:11:38;9.40;1.00
3701;DHT22;1866;48.374;10.766;2023-04-24T02:14:07;9.50;1.00
3701;DHT22;1866;48.374;10.766;2023-04-24T02:16:33;9.50;1.00
3701;DHT22;1866;48.374;10.766;2023-04-24T02:19:01;9.40;1.00
3701;DHT22;1866;48.374;10.766;2023-04-24T02:21:28;9.40;1.00
3701;DHT22;1866;48.374;10.766;2023-04-24T02:23:56;9.40;1.00
3701;DHT22;1866;48.374;10.766;2023-04-24T02:26:23;9.50;1.00
3701;DHT22;1866;48.374;10.766;2023-04-24T02:28:50;9.40;1.00
3701;DHT22;1866;48.374;10.766;2023-04-24T02:31:18;9.40;1.00
3701;DHT22;1866;48.374;10.766;2023-04-24T02:33:45;9.50;1.00
3701;DHT22;1866;48.374;10.766;2023-04-24T02:36:12;9.40;1.00
3701;DHT22;1866;48.374;10.766;2023-04-24T02:38:39;9.40;1.00
3701;DHT22;1866;48.374;10.766;2023-04-24T02:41:06;9.40;1.00
3701;DHT22;1866;48.374;10.766;2023-04-24T02:43:33;9.40;1.00
3701;DHT22;1866;48.374;10.766;2023-04-24T02:46:00;9.40;1.00
3701;DHT22;1866;48.374;10.766;2023-04-24T02:48:28;9.40;1.00
3701;DHT22;1866;48.374;10.766;2023-04-24T02:50:55;9.40;1.00
3701;DHT22;1866;48.374;10.766;2023-04-24T02:53:23;9.40;1.00
3701;DHT22;1866;48.374;10.766;2023-04-24T02:55:49;9.40;1.00
3701;DHT22;1866;48.374;10.766;2023-04-24T02:58:16;9.40;1.00
3701;DHT22;1866;48.374;10.766;2023-04-24T03:00:45;9.40;1.00
3701;DHT22;1866;48.374;10.766;2023-04-24T03:03:12;9.40;1.00
3701;DHT22;1866;48.374;10.766;2023-04-24T03:05:40;9.40;1.00
3701;DHT22;1866;48.374;10.766;2023-04-24T03:08:07;9.40;1.00
3701;DHT22;1866;48.374;10.766;2023-04-24T03:10:34;9.30;1.00
3701;DHT22;1866;48.374;10.766;2023-04-24T03:13:01;9.40;1.00
3701;DHT22;1866;48.374;10.766;2023-04-24T03:15:27;9.40;1.00
3701;DHT22;1866;48.374;10.766;2023-04-24T03:17:54;9.40;1.00
3701;DHT22;1866;48.374;10.766;2023-04-24T03:20:21;9.30;1.00
3701;DHT22;1866;48.374;10.766;2023-04-24T03:22:49;9.40;1.00
3701;DHT22;1866;48.374;10.766;2023-04-24T03:25:16;9.30;1.00
3701;DHT22;1866;48.374;10.766;2023-04-24T03:27:43;9.30;1.00
3701;DHT22;1866;48.374;10.766;2023-04-24T03:30:10;9.30;1.00
3701;DHT22;1866;48.374;10.766;2023-04-24T03:32:37;9.20;1.00
3701;DHT22;1866;48.374;10.766;2023-04-24T03:35:05;9.20;1.00
3701;DHT22;1866;48.374;10.766;2023-04-24T03:37:33;9.20;1.00
3701;DHT22;1866;48.374;10.766;2023-04-24T03:40:01;9.20;1.00
3701;DHT22;1866;48.374;10.766;2023-04-24T03:42:28;9.20;1.00
3701;DHT22;1866;48.374;10.766;2023-04-24T03:44:55;9.20;1.00
3701;DHT22;1866;48.374;10.766;2023-04-24T03:47:22;9.10;1.00
3701;DHT22;1866;48.374;10.766;2023-04-24T03:49:49;9.20;1.00
3701;DHT22;1866;48.374;10.766;2023-04-24T03:52:16;9.10;1.00
3701;DHT22;1866;48.374;10.766;2023-04-24T03:54:43;9.20;1.00
3701;DHT22;1866;48.374;10.766;2023-04-24T03:57:11;9.20;1.00
3701;DHT22;1866;48.374;10.766;2023-04-24T03:59:38;9.10;1.00
3701;DHT22;1866;48.374;10.766;2023-04-24T04:02:05;9.10;1.00
3701;DHT22;1866;48.374;10.766;2023-04-24T04:04:32;9.10;1.00
3701;DHT22;1866;48.374;10.766;2023-04-24T04:06:59;9.20;1.00
3701;DHT22;1866;48.374;10.766;2023-04-24T04:09:26;9.10;1.00
3701;DHT22;1866;48.374;10.766;2023-04-24T04:11:53;9.10;1.00
3701;DHT22;1866;48.374;10.766;2023-04-24T04:14:22;9.10;1.00
3701;DHT22;1866;48.374;10.766;2023-04-24T04:16:49;9.10;1.00
3701;DHT22;1866;48.374;10.766;2023-04-24T04:19:16;9.10;1.00
3701;DHT22;1866;48.374;10.766;2023-04-24T04:21:43;9.10;1.00
3701;DHT22;1866;48.374;10.766;2023-04-24T04:24:11;9.10;1.00
3701;DHT22;1866;48.374;10.766;2023-04-24T04:26:38;9.10;1.00
3701;DHT22;1866;48.374;10.766;2023-04-24T04:29:06;9.10;1.00
3701;DHT22;1866;48.374;10.766;2023-04-24T04:31:35;9.00;1.00
3701;DHT22;1866;48.374;10.766;2023-04-24T04:34:02;9.00;1.00
3701;DHT22;1866;48.374;10.766;2023-04-24T04:36:29;9.00;1.00
3701;DHT22;1866;48.374;10.766;2023-04-24T04:38:56;9.00;1.00
3701;DHT22;1866;48.374;10.766;2023-04-24T04:41:24;9.00;1.00
3701;DHT22;1866;48.374;10.766;2023-04-24T04:43:51;9.00;1.00
3701;DHT22;1866;48.374;10.766;2023-04-24T04:46:18;9.10;1.00
3701;DHT22;1866;48.374;10.766;2023-04-24T04:48:47;9.10;1.00
3701;DHT22;1866;48.374;10.766;2023-04-24T04:51:14;9.10;1.00
3701;DHT22;1866;48.374;10.766;2023-04-24T04:53:40;9.10;1.00
3701;DHT22;1866;48.374;10.766;2023-04-24T04:56:07;9.00;1.00
3701;DHT22;1866;48.374;10.766;2023-04-24T04:58:34;9.10;1.00
3701;DHT22;1866;48.374;10.766;2023-04-24T05:01:01;9.10;1.00
3701;DHT22;1866;48.374;10.766;2023-04-24T05:03:28;9.10;1.00
3701;DHT22;1866;48.374;10.766;2023-04-24T05:05:57;9.10;1.00
3701;DHT22;1866;48.374;10.766;2023-04-24T05:08:24;9.20;1.00
3701;DHT22;1866;48.374;10.766;2023-04-24T05:10:51;9.20;1.00
3701;DHT22;1866;48.374;10.766;2023-04-24T05:13:17;9.30;1.00
3701;DHT22;1866;48.374;10.766;2023-04-24T05:15:44;9.20;1.00
3701;DHT22;1866;48.374;10.766;2023-04-24T05:18:11;9.20;1.00
3701;DHT22;1866;48.374;10.766;2023-04-24T05:20:38;9.20;1.00
3701;DHT22;1866;48.374;10.766;2023-04-24T05:23:06;9.30;1.00
3701;DHT22;1866;48.374;10.766;2023-04-24T05:25:33;9.30;1.00
3701;DHT22;1866;48.374;10.766;2023-04-24T05:28:01;9.30;99.90
3701;DHT22;1866;48.374;10.766;2023-04-24T05:30:27;9.30;1.00
3701;DHT22;1866;48.374;10.766;2023-04-24T05:32:54;9.30;1.00
3701;DHT22;1866;48.374;10.766;2023-04-24T05:35:21;9.30;1.00
3701;DHT22;1866;48.374;10.766;2023-04-24T05:37:48;9.30;1.00
3701;DHT22;1866;48.374;10.766;2023-04-24T05:40:16;9.30;1.00
3701;DHT22;1866;48.374;10.766;2023-04-24T05:42:43;9.20;99.90
3701;DHT22;1866;48.374;10.766;2023-04-24T05:45:10;9.30;99.90
3701;DHT22;1866;48.374;10.766;2023-04-24T05:47:42;9.20;99.90
3701;DHT22;1866;48.374;10.766;2023-04-24T05:50:10;9.40;99.90
3701;DHT22;1866;48.374;10.766;2023-04-24T05:52:37;9.30;99.90
3701;DHT22;1866;48.374;10.766;2023-04-24T05:55:05;9.40;99.90
3701;DHT22;1866;48.374;10.766;2023-04-24T05:57:34;9.30;99.90
3701;DHT22;1866;48.374;10.766;2023-04-24T06:00:01;9.40;99.90
3701;DHT22;1866;48.374;10.766;2023-04-24T06:02:29;9.40;99.90
3701;DHT22;1866;48.374;10.766;2023-04-24T06:04:57;9.50;99.90
3701;DHT22;1866;48.374;10.766;2023-04-24T06:07:25;9.50;99.90
3701;DHT22;1866;48.374;10.766;2023-04-24T06:09:52;9.50;99.90
3701;DHT22;1866;48.374;10.766;2023-04-24T06:12:19;9.50;99.90
3701;DHT22;1866;48.374;10.766;2023-04-24T06:14:47;9.60;99.90
3701;DHT22;1866;48.374;10.766;2023-04-24T06:17:15;9.60;99.90
3701;DHT22;1866;48.374;10.766;2023-04-24T06:19:42;9.60;99.90
3701;DHT22;1866;48.374;10.766;2023-04-24T06:22:08;9.60;99.90
3701;DHT22;1866;48.374;10.766;2023-04-24T06:24:36;9.70;99.90
3701;DHT22;1866;48.374;10.766;2023-04-24T06:27:03;9.70;99.90
3701;DHT22;1866;48.374;10.766;2023-04-24T06:29:29;9.70;99.90
3701;DHT22;1866;48.374;10.766;2023-04-24T06:31:57;9.60;99.90
3701;DHT22;1866;48.374;10.766;2023-04-24T06:34:24;9.70;99.90
3701;DHT22;1866;48.374;10.766;2023-04-24T06:36:51;9.60;99.90
3701;DHT22;1866;48.374;10.766;2023-04-24T06:39:18;9.70;99.90
3701;DHT22;1866;48.374;10.766;2023-04-24T06:41:45;9.80;99.90
3701;DHT22;1866;48.374;10.766;2023-04-24T06:44:12;9.70;99.90
3701;DHT22;1866;48.374;10.766;2023-04-24T06:46:40;9.80;99.90
3701;DHT22;1866;48.374;10.766;2023-04-24T06:49:08;9.80;99.90
3701;DHT22;1866;48.374;10.766;2023-04-24T06:51:35;9.80;99.90
3701;DHT22;1866;48.374;10.766;2023-04-24T06:54:02;9.70;99.90
3701;DHT22;1866;48.374;10.766;2023-04-24T06:56:29;9.70;96.40
3701;DHT22;1866;48.374;10.766;2023-04-24T06:58:55;9.80;99.90
3701;DHT22;1866;48.374;10.766;2023-04-24T07:01:22;9.80;96.10
3701;DHT22;1866;48.374;10.766;2023-04-24T07:03:49;9.80;99.90
3701;DHT22;1866;48.374;10.766;2023-04-24T07:06:17;9.70;95.00
3701;DHT22;1866;48.374;10.766;2023-04-24T07:08:46;9.80;99.90
3701;DHT22;1866;48.374;10.766;2023-04-24T07:11:13;9.70;99.90
3701;DHT22;1866;48.374;10.766;2023-04-24T07:13:40;9.80;99.90
3701;DHT22;1866;48.374;10.766;2023-04-24T07:16:08;9.80;91.20
3701;DHT22;1866;48.374;10.766;2023-04-24T07:18:35;9.80;70.80
3701;DHT22;1866;48.374;10.766;2023-04-24T07:21:02;9.70;65.80
3701;DHT22;1866;48.374;10.766;2023-04-24T07:23:31;9.70;68.90
3701;DHT22;1866;48.374;10.766;2023-04-24T07:25:58;9.70;89.10
3701;DHT22;1866;48.374;10.766;2023-04-24T07:28:24;9.70;81.40
3701;DHT22;1866;48.374;10.766;2023-04-24T07:30:51;9.70;99.90
3701;DHT22;1866;48.374;10.766;2023-04-24T07:33:19;9.60;78.70
3701;DHT22;1866;48.374;10.766;2023-04-24T07:35:46;9.50;79.90
3701;DHT22;1866;48.374;10.766;2023-04-24T07:38:13;9.60;65.50
3701;DHT22;1866;48.374;10.766;2023-04-24T07:40:41;9.70;29.50
3701;DHT22;1866;48.374;10.766;2023-04-24T07:43:08;9.80;75.20
3701;DHT22;1866;48.374;10.766;2023-04-24T07:45:35;9.70;56.30
3701;DHT22;1866;48.374;10.766;2023-04-24T07:48:03;9.80;76.70
3701;DHT22;1866;48.374;10.766;2023-04-24T07:50:29;9.80;81.60
3701;DHT22;1866;48.374;10.766;2023-04-24T07:52:56;9.70;92.10
3701;DHT22;1866;48.374;10.766;2023-04-24T07:55:23;9.70;39.80
3701;DHT22;1866;48.374;10.766;2023-04-24T07:57:51;9.80;88.90
3701;DHT22;1866;48.374;10.766;2023-04-24T08:00:19;9.80;97.70
3701;DHT22;1866;48.374;10.766;2023-04-24T08:02:46;9.80;91.50
3701;DHT22;1866;48.374;10.766;2023-04-24T08:05:13;9.80;91.40
3701;DHT22;1866;48.374;10.766;2023-04-24T08:07:39;9.80;61.10
3701;DHT22;1866;48.374;10.766;2023-04-24T08:10:10;9.90;83.50
3701;DHT22;1866;48.374;10.766;2023-04-24T08:12:37;9.80;12.90
3701;DHT22;1866;48.374;10.766;2023-04-24T08:15:06;10.00;1.00
3701;DHT22;1866;48.374;10.766;2023-04-24T08:17:34;10.10;1.00
3701;DHT22;1866;48.374;10.766;2023-04-24T08:20:01;10.30;6.00
3701;DHT22;1866;48.374;10.766;2023-04-24T08:22:28;10.40;1.00
3701;DHT22;1866;48.374;10.766;2023-04-24T08:24:55;10.70;1.00
3701;DHT22;1866;48.374;10.766;2023-04-24T08:27:22;10.60;1.00
3701;DHT22;1866;48.374;10.766;2023-04-24T08:29:49;10.80;1.00
3701;DHT22;1866;48.374;10.766;2023-04-24T08:32:18;10.80;1.00
3701;DHT22;1866;48.374;10.766;2023-04-24T08:34:44;11.00;1.00
3701;DHT22;1866;48.374;10.766;2023-04-24T08:37:11;11.20;1.00
3701;DHT22;1866;48.374;10.766;2023-04-24T08:39:38;10.80;1.00
3701;DHT22;1866;48.374;10.766;2023-04-24T08:42:05;10.70;1.00
3701;DHT22;1866;48.374;10.766;2023-04-24T08:44:35;10.90;1.00
3701;DHT22;1866;48.374;10.766;2023-04-24T08:47:02;11.20;1.00
3701;DHT22;1866;48.374;10.766;2023-04-24T08:49:31;11.10;1.00
3701;DHT22;1866;48.374;10.766;2023-04-24T08:51:58;11.40;1.00
3701;DHT22;1866;48.374;10.766;2023-04-24T08:54:25;11.20;1.00
3701;DHT22;1866;48.374;10.766;2023-04-24T08:56:54;11.20;1.00
3701;DHT22;1866;48.374;10.766;2023-04-24T08:59:24;11.20;1.00
3701;DHT22;1866;48.374;10.766;2023-04-24T09:01:51;11.20;1.00
3701;DHT22;1866;48.374;10.766;2023-04-24T09:04:19;11.20;1.00
3701;DHT22;1866;48.374;10.766;2023-04-24T09:06:49;11.60;1.00
3701;DHT22;1866;48.374;10.766;2023-04-24T09:09:16;11.40;1.00
3701;DHT22;1866;48.374;10.766;2023-04-24T09:11:44;11.30;1.00
3701;DHT22;1866;48.374;10.766;2023-04-24T09:14:11;11.30;1.00
3701;DHT22;1866;48.374;10.766;2023-04-24T09:16:38;11.40;1.00
3701;DHT22;1866;48.374;10.766;2023-04-24T09:19:05;11.80;1.00
3701;DHT22;1866;48.374;10.766;2023-04-24T09:21:32;11.70;1.00
3701;DHT22;1866;48.374;10.766;2023-04-24T09:24:01;11.80;1.00
3701;DHT22;1866;48.374;10.766;2023-04-24T09:26:30;11.80;1.00
3701;DHT22;1866;48.374;10.766;2023-04-24T09:28:59;12.60;1.00
3701;DHT22;1866;48.374;10.766;2023-04-24T09:31:27;12.50;1.00
3701;DHT22;1866;48.374;10.766;2023-04-24T09:33:55;12.10;1.00
3701;DHT22;1866;48.374;10.766;2023-04-24T09:36:30;12.00;1.00
3701;DHT22;1866;48.374;10.766;2023-04-24T09:39:00;12.40;1.00
3701;DHT22;1866;48.374;10.766;2023-04-24T09:41:28;12.50;1.00
3701;DHT22;1866;48.374;10.766;2023-04-24T09:43:56;12.80;1.00
3701;DHT22;1866;48.374;10.766;2023-04-24T09:46:29;12.20;1.00
3701;DHT22;1866;48.374;10.766;2023-04-24T09:48:57;12.80;1.00
3701;DHT22;1866;48.374;10.766;2023-04-24T09:51:34;12.70;1.00
3701;DHT22;1866;48.374;10.766;2023-04-24T09:54:04;13.10;1.00
3701;DHT22;1866;48.374;10.766;2023-04-24T09:56:33;12.70;1.00
3701;DHT22;1866;48.374;10.766;2023-04-24T09:59:07;12.50;1.00
3701;DHT22;1866;48.374;10.766;2023-04-24T10:01:34;12.10;1.00
3701;DHT22;1866;48.374;10.766;2023-04-24T10:04:01;11.50;1.00
3701;DHT22;1866;48.374;10.766;2023-04-24T10:06:33;10.50;1.00
3701;DHT22;1866;48.374;10.766;2023-04-24T10:09:00;10.10;1.00
3701;DHT22;1866;48.374;10.766;2023-04-24T10:11:29;9.90;1.00
3701;DHT22;1866;48.374;10.766;2023-04-24T10:13:56;10.00;1.00
3701;DHT22;1866;48.374;10.766;2023-04-24T10:16:24;10.00;1.00
3701;DHT22;1866;48.374;10.766;2023-04-24T10:18:52;10.10;1.00
3701;DHT22;1866;48.374;10.766;2023-04-24T10:21:19;10.20;1.00
3701;DHT22;1866;48.374;10.766;2023-04-24T10:23:48;10.20;1.00
3701;DHT22;1866;48.374;10.766;2023-04-24T10:26:16;10.40;1.00
3701;DHT22;1866;48.374;10.766;2023-04-24T10:28:47;10.40;1.00
3701;DHT22;1866;48.374;10.766;2023-04-24T10:31:14;10.70;1.00
3701;DHT22;1866;48.374;10.766;2023-04-24T10:33:42;10.80;1.00
3701;DHT22;1866;48.374;10.766;2023-04-24T10:36:10;10.70;1.00
3701;DHT22;1866;48.374;10.766;2023-04-24T10:38:40;10.60;1.00
3701;DHT22;1866;48.374;10.766;2023-04-24T10:41:09;10.60;1.00
3701;DHT22;1866;48.374;10.766;2023-04-24T10:43:41;10.90;1.00
3701;DHT22;1866;48.374;10.766;2023-04-24T10:46:10;11.10;1.00
3701;DHT22;1866;48.374;10.766;2023-04-24T10:48:42;11.60;1.00
3701;DHT22;1866;48.374;10.766;2023-04-24T10:51:12;12.00;1.00
3701;DHT22;1866;48.374;10.766;2023-04-24T10:53:39;12.40;1.00
3701;DHT22;1866;48.374;10.766;2023-04-24T10:56:08;12.60;1.00
3701;DHT22;1866;48.374;10.766;2023-04-24T10:58:38;12.80;1.00
3701;DHT22;1866;48.374;10.766;2023-04-24T11:01:06;12.60;1.00
3701;DHT22;1866;48.374;10.766;2023-04-24T11:03:35;12.70;1.00
3701;DHT22;1866;48.374;10.766;2023-04-24T11:06:03;12.30;1.00
3701;DHT22;1866;48.374;10.766;2023-04-24T11:08:33;12.10;1.00
3701;DHT22;1866;48.374;10.766;2023-04-24T11:11:08;11.80;1.00
3701;DHT22;1866;48.374;10.766;2023-04-24T11:14:02;12.10;1.00
3701;DHT22;1866;48.374;10.766;2023-04-24T11:16:32;12.30;1.00
3701;DHT22;1866;48.374;10.766;2023-04-24T11:19:06;12.50;1.00
3701;DHT22;1866;48.374;10.766;2023-04-24T11:21:40;13.00;1.00
3701;DHT22;1866;48.374;10.766;2023-04-24T11:24:25;13.10;1.00
3701;DHT22;1866;48.374;10.766;2023-04-24T11:26:53;13.30;1.00
3701;DHT22;1866;48.374;10.766;2023-04-24T11:29:21;13.20;1.00
3701;DHT22;1866;48.374;10.766;2023-04-24T11:31:48;13.40;1.00
3701;DHT22;1866;48.374;10.766;2023-04-24T11:34:18;13.40;1.00
3701;DHT22;1866;48.374;10.766;2023-04-24T11:36:46;13.00;1.00
3701;DHT22;1866;48.374;10.766;2023-04-24T11:39:13;12.70;1.00
3701;DHT22;1866;48.374;10.766;2023-04-24T11:41:40;12.70;1.00
3701;DHT22;1866;48.374;10.766;2023-04-24T11:44:09;12.90;1.00
3701;DHT22;1866;48.374;10.766;2023-04-24T11:46:36;12.40;1.00
3701;DHT22;1866;48.374;10.766;2023-04-24T11:49:05;12.60;1.00
3701;DHT22;1866;48.374;10.766;2023-04-24T11:51:34;12.60;1.00
3701;DHT22;1866;48.374;10.766;2023-04-24T11:54:01;12.50;1.00
3701;DHT22;1866;48.374;10.766;2023-04-24T11:56:28;12.80;1.00
3701;DHT22;1866;48.374;10.766;2023-04-24T11:58:55;13.20;1.00
3701;DHT22;1866;48.374;10.766;2023-04-24T12:01:22;13.00;1.00
3701;DHT22;1866;48.374;10.766;2023-04-24T12:03:49;12.70;1.00
3701;DHT22;1866;48.374;10.766;2023-04-24T12:06:17;12.70;1.00
3701;DHT22;1866;48.374;10.766;2023-04-24T12:08:47;12.70;1.00
3701;DHT22;1866;48.374;10.766;2023-04-24T12:11:16;12.50;1.00
3701;DHT22;1866;48.374;10.766;2023-04-24T12:13:44;12.30;1.00
3701;DHT22;1866;48.374;10.766;2023-04-24T12:16:11;12.40;1.00
3701;DHT22;1866;48.374;10.766;2023-04-24T12:18:43;12.40;1.00
3701;DHT22;1866;48.374;10.766;2023-04-24T12:21:20;12.70;1.00
3701;DHT22;1866;48.374;10.766;2023-04-24T12:23:49;13.20;1.00
3701;DHT22;1866;48.374;10.766;2023-04-24T12:26:17;13.40;1.00
3701;DHT22;1866;48.374;10.766;2023-04-24T12:28:47;13.60;1.00
3701;DHT22;1866;48.374;10.766;2023-04-24T12:31:15;13.30;1.00
3701;DHT22;1866;48.374;10.766;2023-04-24T12:33:42;13.20;1.00
3701;DHT22;1866;48.374;10.766;2023-04-24T12:36:10;13.30;1.00
3701;DHT22;1866;48.374;10.766;2023-04-24T12:38:38;13.00;1.00
3701;DHT22;1866;48.374;10.766;2023-04-24T12:41:08;12.90;1.00
3701;DHT22;1866;48.374;10.766;2023-04-24T12:43:36;13.00;1.00
3701;DHT22;1866;48.374;10.766;2023-04-24T12:46:03;12.90;1.00
3701;DHT22;1866;48.374;10.766;2023-04-24T12:48:30;12.70;1.00
3701;DHT22;1866;48.374;10.766;2023-04-24T12:50:57;12.70;1.00
3701;DHT22;1866;48.374;10.766;2023-04-24T12:53:27;12.60;1.00
3701;DHT22;1866;48.374;10.766;2023-04-24T12:55:55;12.60;1.00
3701;DHT22;1866;48.374;10.766;2023-04-24T12:58:24;12.50;1.00
3701;DHT22;1866;48.374;10.766;2023-04-24T13:00:51;12.40;1.00
3701;DHT22;1866;48.374;10.766;2023-04-24T13:03:18;12.90;1.00
3701;DHT22;1866;48.374;10.766;2023-04-24T13:05:45;13.00;1.00
3701;DHT22;1866;48.374;10.766;2023-04-24T13:08:12;12.80;1.00
3701;DHT22;1866;48.374;10.766;2023-04-24T13:10:39;12.90;1.00
3701;DHT22;1866;48.374;10.766;2023-04-24T13:13:07;13.00;1.00
3701;DHT22;1866;48.374;10.766;2023-04-24T13:15:36;13.00;1.00
3701;DHT22;1866;48.374;10.766;2023-04-24T13:18:03;13.20;1.00
3701;DHT22;1866;48.374;10.766;2023-04-24T13:20:30;13.40;1.00
3701;DHT22;1866;48.374;10.766;2023-04-24T13:22:57;13.20;1.00
3701;DHT22;1866;48.374;10.766;2023-04-24T13:25:24;12.80;1.00
3701;DHT22;1866;48.374;10.766;2023-04-24T13:27:51;12.90;1.00
3701;DHT22;1866;48.374;10.766;2023-04-24T13:30:19;13.30;1.00
3701;DHT22;1866;48.374;10.766;2023-04-24T13:32:47;13.30;1.00
3701;DHT22;1866;48.374;10.766;2023-04-24T13:35:14;12.90;1.00
3701;DHT22;1866;48.374;10.766;2023-04-24T13:37:41;12.90;1.00
3701;DHT22;1866;48.374;10.766;2023-04-24T13:40:09;12.90;1.00
3701;DHT22;1866;48.374;10.766;2023-04-24T13:42:36;12.60;1.00
3701;DHT22;1866;48.374;10.766;2023-04-24T13:45:03;12.40;1.00
3701;DHT22;1866;48.374;10.766;2023-04-24T13:47:30;12.40;1.00
3701;DHT22;1866;48.374;10.766;2023-04-24T13:49:58;12.60;1.00
3701;DHT22;1866;48.374;10.766;2023-04-24T13:52:25;12.70;1.00
3701;DHT22;1866;48.374;10.766;2023-04-24T13:54:52;12.60;1.00
3701;DHT22;1866;48.374;10.766;2023-04-24T13:57:22;12.60;1.00
3701;DHT22;1866;48.374;10.766;2023-04-24T13:59:49;12.40;1.00
3701;DHT22;1866;48.374;10.766;2023-04-24T14:02:16;12.40;1.00
3701;DHT22;1866;48.374;10.766;2023-04-24T14:04:42;12.30;1.00
3701;DHT22;1866;48.374;10.766;2023-04-24T14:07:10;12.20;1.00
3701;DHT22;1866;48.374;10.766;2023-04-24T14:09:37;12.00;1.00
3701;DHT22;1866;48.374;10.766;2023-04-24T14:12:04;12.20;1.00
3701;DHT22;1866;48.374;10.766;2023-04-24T14:14:32;12.50;1.00
3701;DHT22;1866;48.374;10.766;2023-04-24T14:16:59;12.50;1.00
3701;DHT22;1866;48.374;10.766;2023-04-24T14:19:26;12.60;1.00
3701;DHT22;1866;48.374;10.766;2023-04-24T14:21:52;12.70;1.00
3701;DHT22;1866;48.374;10.766;2023-04-24T14:24:22;12.70;1.00
3701;DHT22;1866;48.374;10.766;2023-04-24T14:26:49;12.80;1.00
3701;DHT22;1866;48.374;10.766;2023-04-24T14:29:16;13.10;1.00
3701;DHT22;1866;48.374;10.766;2023-04-24T14:31:43;12.40;1.00
3701;DHT22;1866;48.374;10.766;2023-04-24T14:34:10;12.70;1.00
3701;DHT22;1866;48.374;10.766;2023-04-24T14:36:36;12.40;1.00
3701;DHT22;1866;48.374;10.766;2023-04-24T14:39:03;12.50;1.00
3701;DHT22;1866;48.374;10.766;2023-04-24T14:41:33;12.60;1.00
3701;DHT22;1866;48.374;10.766;2023-04-24T14:44:01;12.50;1.00
3701;DHT22;1866;48.374;10.766;2023-04-24T14:46:28;12.70;1.00
3701;DHT22;1866;48.374;10.766;2023-04-24T14:48:55;12.50;1.00
3701;DHT22;1866;48.374;10.766;2023-04-24T14:51:23;12.60;1.00
3701;DHT22;1866;48.374;10.766;2023-04-24T14:53:50;12.50;1.00
3701;DHT22;1866;48.374;10.766;2023-04-24T14:56:17;12.20;1.00
3701;DHT22;1866;48.374;10.766;2023-04-24T14:58:45;12.50;1.00
3701;DHT22;1866;48.374;10.766;2023-04-24T15:01:12;12.50;1.00
3701;DHT22;1866;48.374;10.766;2023-04-24T15:03:39;12.50;1.00
3701;DHT22;1866;48.374;10.766;2023-04-24T15:06:06;12.60;1.00
3701;DHT22;1866;48.374;10.766;2023-04-24T15:08:33;12.50;1.00
3701;DHT22;1866;48.374;10.766;2023-04-24T15:11:00;12.30;1.00
3701;DHT22;1866;48.374;10.766;2023-04-24T15:13:27;12.20;1.00
3701;DHT22;1866;48.374;10.766;2023-04-24T15:15:55;12.10;1.00
3701;DHT22;1866;48.374;10.766;2023-04-24T15:18:22;12.00;1.00
3701;DHT22;1866;48.374;10.766;2023-04-24T15:20:49;12.20;1.00
3701;DHT22;1866;48.374;10.766;2023-04-24T15:23:16;12.60;1.00
3701;DHT22;1866;48.374;10.766;2023-04-24T15:25:43;12.70;1.00
3701;DHT22;1866;48.374;10.766;2023-04-24T15:28:09;12.20;1.00
3701;DHT22;1866;48.374;10.766;2023-04-24T15:30:36;12.60;1.00
3701;DHT22;1866;48.374;10.766;2023-04-24T15:33:04;12.90;1.00
3701;DHT22;1866;48.374;10.766;2023-04-24T15:35:31;12.50;1.00
3701;DHT22;1866;48.374;10.766;2023-04-24T15:37:58;12.50;1.00
3701;DHT22;1866;48.374;10.766;2023-04-24T15:40:25;12.60;1.00
3701;DHT22;1866;48.374;10.766;2023-04-24T15:42:52;12.40;1.00
3701;DHT22;1866;48.374;10.766;2023-04-24T15:45:19;12.40;1.00
3701;DHT22;1866;48.374;10.766;2023-04-24T15:47:45;11.90;1.00
3701;DHT22;1866;48.374;10.766;2023-04-24T15:50:14;11.90;1.00
3701;DHT22;1866;48.374;10.766;2023-04-24T15:52:42;11.90;1.00
3701;DHT22;1866;48.374;10.766;2023-04-24T15:55:09;11.80;1.00
3701;DHT22;1866;48.374;10.766;2023-04-24T15:57:36;11.80;1.00
3701;DHT22;1866;48.374;10.766;2023-04-24T16:00:04;11.80;1.00
3701;DHT22;1866;48.374;10.766;2023-04-24T16:02:31;11.80;1.00
3701;DHT22;1866;48.374;10.766;2023-04-24T16:04:58;11.90;1.00
3701;DHT22;1866;48.374;10.766;2023-04-24T16:07:27;11.90;1.00
3701;DHT22;1866;48.374;10.766;2023-04-24T16:09:53;11.60;1.00